Rice, Kansas
Current Conditions -  °F | °C
As of 3:55 AM on Sunday 26 Oct 2014 (Local Time) from KCNK Reporting Station
Haze Haze  
Wind Chill: 57°   Ceiling: Unl
Heat Index: 57°   Visibility: 6mi
Dew Point: 56°   Wind: 6mph
Humidity: 96%   Direction: 110°ESE
Pressure: 29.84"   Gusts: NA
Location:  39.4716°N, 97.7305°W
Report Text: KCNK 260855Z AUTO 11005KT 6SM BR CLR 14/13 A2984 RMK AO2 SLP094 T01390133 56025
Loading
Personal Weather Stations






























Interactive Weather Map
Tropical Storm Tracking
New forecast layout! Learn more

10-Day Weather Forecast

Advertisements
Track Severe Weather on mobile